createdAt,value
2023-02-08T00:01:47.888Z,20.02
2023-02-08T00:04:14.470Z,19.13
2023-02-08T00:06:41.675Z,21.77
2023-02-08T00:09:08.684Z,23.98
2023-02-08T00:11:35.810Z,21.83
2023-02-08T00:14:02.831Z,21.55
2023-02-08T00:16:29.502Z,20.20
2023-02-08T00:18:56.270Z,20.88
2023-02-08T00:21:22.849Z,20.63
2023-02-08T00:23:49.679Z,20.27
2023-02-08T00:26:18.603Z,19.38
2023-02-08T00:28:45.235Z,19.80
2023-02-08T00:31:11.827Z,19.40
2023-02-08T00:33:38.391Z,20.25
2023-02-08T00:36:07.981Z,20.13
2023-02-08T00:38:35.253Z,19.42
2023-02-08T00:41:01.790Z,20.52
2023-02-08T00:43:30.792Z,20.80
2023-02-08T00:45:59.060Z,20.88
2023-02-08T00:48:28.532Z,21.38
2023-02-08T00:51:01.278Z,21.75
2023-02-08T00:53:30.688Z,16.10
2023-02-08T00:55:57.676Z,21.02
2023-02-08T00:58:24.367Z,21.70
2023-02-08T01:00:52.961Z,21.65
2023-02-08T01:03:21.578Z,21.00
2023-02-08T01:05:48.166Z,21.55
2023-02-08T01:08:15.320Z,21.30
2023-02-08T01:10:44.638Z,22.05
2023-02-08T01:13:11.178Z,22.02
2023-02-08T01:15:37.777Z,22.10
2023-02-08T01:18:05.041Z,22.30
2023-02-08T01:20:37.431Z,23.05
2023-02-08T01:23:04.636Z,21.40
2023-02-08T01:25:31.151Z,21.23
2023-02-08T01:27:57.730Z,21.27
2023-02-08T01:30:24.343Z,23.30
2023-02-08T01:32:50.921Z,23.92
2023-02-08T01:35:17.590Z,27.45
2023-02-08T01:37:46.367Z,29.95
2023-02-08T01:40:15.708Z,30.77
2023-02-08T01:42:42.170Z,27.00
2023-02-08T01:45:20.719Z,26.55
2023-02-08T01:47:52.075Z,22.48
2023-02-08T01:50:21.632Z,22.15
2023-02-08T01:52:51.423Z,20.67
2023-02-08T01:55:27.082Z,20.88
2023-02-08T01:57:56.756Z,21.65
2023-02-08T02:00:24.577Z,21.08
2023-02-08T02:02:56.501Z,20.05
2023-02-08T02:05:28.198Z,20.77
2023-02-08T02:07:57.208Z,22.83
2023-02-08T02:10:30.179Z,22.75
2023-02-08T02:13:02.159Z,22.90
2023-02-08T02:15:28.622Z,23.48
2023-02-08T02:17:55.317Z,26.02
2023-02-08T02:20:46.574Z,24.67
2023-02-08T02:23:43.595Z,23.50
2023-02-08T02:26:31.407Z,23.05
2023-02-08T02:29:06.871Z,23.27
2023-02-08T02:31:42.300Z,23.95
2023-02-08T02:34:46.963Z,24.15
2023-02-08T02:37:37.685Z,23.00
2023-02-08T02:40:42.101Z,21.50
2023-02-08T02:43:27.284Z,22.75
2023-02-08T02:46:24.308Z,27.27
2023-02-08T02:49:20.597Z,25.48
2023-02-08T02:52:06.241Z,25.35
2023-02-08T02:54:37.398Z,26.65
2023-02-08T02:57:08.109Z,29.02
2023-02-08T02:59:37.479Z,24.58
2023-02-08T03:02:04.717Z,24.83
2023-02-08T03:04:34.212Z,24.48
2023-02-08T03:07:03.433Z,23.42
2023-02-08T03:10:00.988Z,27.65
2023-02-08T03:13:09.358Z,27.45
2023-02-08T03:15:35.760Z,23.23
2023-02-08T03:18:33.253Z,21.23
2023-02-08T03:21:15.327Z,21.02
2023-02-08T03:24:07.409Z,22.83
2023-02-08T03:26:46.598Z,21.58
2023-02-08T03:29:44.988Z,21.55
2023-02-08T03:32:24.195Z,21.35
2023-02-08T03:35:05.159Z,22.00
2023-02-08T03:38:05.765Z,22.08
2023-02-08T03:40:38.349Z,21.35
2023-02-08T03:43:14.229Z,23.00
2023-02-08T03:45:46.771Z,23.65
2023-02-08T03:48:17.621Z,24.23
2023-02-08T03:50:48.441Z,22.52
2023-02-08T03:53:19.896Z,20.98
2023-02-08T03:55:50.155Z,21.80
2023-02-08T03:58:34.555Z,22.15
2023-02-08T04:01:09.345Z,21.35
2023-02-08T04:03:36.799Z,21.35
2023-02-08T04:06:03.737Z,21.10
2023-02-08T04:08:30.224Z,21.42
2023-02-08T04:10:56.758Z,21.02
2023-02-08T04:13:23.315Z,22.75
2023-02-08T04:15:50.036Z,23.50
2023-02-08T04:18:16.531Z,24.58
2023-02-08T04:20:42.995Z,22.25
2023-02-08T04:23:09.455Z,22.02
2023-02-08T04:25:35.936Z,22.48
2023-02-08T04:28:02.425Z,24.08
2023-02-08T04:30:29.102Z,25.13
2023-02-08T04:32:55.640Z,22.30
2023-02-08T04:35:22.104Z,25.48
2023-02-08T04:37:50.847Z,23.05
2023-02-08T04:40:17.408Z,20.73
2023-02-08T04:42:46.517Z,20.95
2023-02-08T04:45:12.993Z,21.33
2023-02-08T04:47:39.448Z,22.73
2023-02-08T04:50:06.280Z,22.98
2023-02-08T04:52:32.780Z,21.75
2023-02-08T04:54:59.222Z,21.20
2023-02-08T04:57:25.687Z,21.80
2023-02-08T04:59:52.118Z,22.27
2023-02-08T05:02:18.628Z,20.85
2023-02-08T05:04:45.178Z,22.08
2023-02-08T05:07:11.643Z,22.90
2023-02-08T05:09:38.167Z,22.38
2023-02-08T05:12:04.974Z,23.98
2023-02-08T05:14:31.459Z,22.67
2023-02-08T05:17:00.381Z,22.08
2023-02-08T05:19:26.864Z,21.52
2023-02-08T05:21:53.297Z,20.40
2023-02-08T05:24:19.833Z,20.55
2023-02-08T05:26:46.328Z,21.88
2023-02-08T05:29:12.812Z,22.58
2023-02-08T05:31:39.413Z,23.95
2023-02-08T05:34:05.977Z,22.55
2023-02-08T05:36:35.437Z,25.25
2023-02-08T05:39:02.051Z,25.98
2023-02-08T05:41:28.472Z,27.38
2023-02-08T05:43:54.942Z,25.52
2023-02-08T05:46:21.446Z,26.77
2023-02-08T05:48:48.069Z,25.50
2023-02-08T05:51:14.621Z,22.10
2023-02-08T05:53:41.340Z,22.42
2023-02-08T05:56:07.910Z,22.33
2023-02-08T05:58:34.488Z,21.58
2023-02-08T06:01:01.008Z,21.15
2023-02-08T06:03:27.544Z,21.05
2023-02-08T06:05:54.034Z,21.17
2023-02-08T06:08:20.532Z,20.40
2023-02-08T06:10:50.833Z,20.50
2023-02-08T06:13:17.315Z,20.85
2023-02-08T06:15:46.320Z,21.45
2023-02-08T06:18:13.019Z,20.70
2023-02-08T06:20:39.747Z,22.00
2023-02-08T06:23:06.424Z,22.38
2023-02-08T06:25:32.957Z,22.17
2023-02-08T06:27:59.530Z,19.67
2023-02-08T06:30:26.166Z,22.70
2023-02-08T06:32:52.629Z,20.58
2023-02-08T06:35:19.265Z,22.17
2023-02-08T06:37:45.759Z,21.25
2023-02-08T06:40:12.274Z,21.75
2023-02-08T06:42:38.792Z,21.00
2023-02-08T06:45:08.264Z,20.13
2023-02-08T06:47:34.711Z,19.60
2023-02-08T06:50:01.274Z,19.50
2023-02-08T06:52:27.771Z,19.67
2023-02-08T06:54:54.520Z,18.50
2023-02-08T06:57:21.028Z,18.80
2023-02-08T06:59:47.493Z,18.85
2023-02-08T07:02:16.694Z,19.10
2023-02-08T07:04:44.003Z,18.90
2023-02-08T07:07:12.401Z,19.05
2023-02-08T07:09:39.257Z,19.58
2023-02-08T07:12:05.989Z,18.40
2023-02-08T07:14:33.953Z,19.73
2023-02-08T07:17:03.692Z,19.00
2023-02-08T07:19:32.728Z,18.65
2023-02-08T07:22:06.694Z,18.42
2023-02-08T07:24:45.555Z,18.25
2023-02-08T07:27:13.328Z,18.08
2023-02-08T07:29:40.835Z,19.20
2023-02-08T07:32:09.794Z,18.52
2023-02-08T07:34:37.939Z,18.20
2023-02-08T07:37:07.016Z,17.75
2023-02-08T07:39:36.052Z,17.27
2023-02-08T07:42:02.860Z,17.88
2023-02-08T07:44:29.447Z,16.98
2023-02-08T07:46:56.052Z,17.08
2023-02-08T07:49:22.608Z,17.95
2023-02-08T07:51:49.176Z,17.98
2023-02-08T07:54:16.009Z,17.98
2023-02-08T07:56:42.584Z,17.90
2023-02-08T07:59:09.203Z,17.55
2023-02-08T08:01:35.796Z,18.42
2023-02-08T08:04:02.614Z,17.65
2023-02-08T08:06:31.383Z,17.85
2023-02-08T08:08:58.111Z,17.23
2023-02-08T08:11:24.673Z,16.33
2023-02-08T08:13:51.887Z,18.13
2023-02-08T08:16:19.358Z,18.75
2023-02-08T08:18:46.822Z,18.40
2023-02-08T08:21:13.821Z,18.55
2023-02-08T08:23:40.378Z,20.02
2023-02-08T08:26:13.957Z,18.80
2023-02-08T08:28:41.790Z,19.45
2023-02-08T08:31:16.161Z,19.23
2023-02-08T08:33:42.901Z,18.15
2023-02-08T08:36:09.984Z,18.80
2023-02-08T08:38:38.815Z,18.85
2023-02-08T08:41:10.866Z,18.77
2023-02-08T08:43:37.856Z,18.35
2023-02-08T08:46:06.613Z,18.90
2023-02-08T08:48:34.808Z,18.80
2023-02-08T08:51:01.647Z,19.10
2023-02-08T08:53:28.281Z,19.25
2023-02-08T08:55:54.932Z,18.77
2023-02-08T08:58:21.496Z,18.70
2023-02-08T09:00:48.320Z,19.35
2023-02-08T09:03:14.896Z,19.40
2023-02-08T09:05:42.063Z,18.50
2023-02-08T09:08:08.669Z,18.58
2023-02-08T09:10:35.427Z,18.23
2023-02-08T09:13:02.033Z,19.00
2023-02-08T09:15:28.672Z,18.50
2023-02-08T09:17:55.328Z,17.35
2023-02-08T09:20:21.971Z,18.10
2023-02-08T09:22:48.600Z,18.20
2023-02-08T09:25:15.422Z,17.15
2023-02-08T09:27:42.006Z,16.90
2023-02-08T09:30:09.343Z,17.05
2023-02-08T09:32:36.734Z,16.73
2023-02-08T09:35:06.210Z,17.65
2023-02-08T09:37:35.449Z,16.27
2023-02-08T09:40:02.218Z,16.77
2023-02-08T09:42:44.953Z,16.83
2023-02-08T09:45:51.094Z,17.70
2023-02-08T09:48:36.789Z,17.50
2023-02-08T09:51:24.585Z,17.70
2023-02-08T09:54:07.157Z,17.98
2023-02-08T09:56:40.419Z,17.75
2023-02-08T09:59:13.783Z,17.52
2023-02-08T10:01:40.404Z,19.23
2023-02-08T10:04:25.825Z,18.65
2023-02-08T10:06:52.659Z,18.95
2023-02-08T10:09:26.883Z,19.45
2023-02-08T10:12:13.350Z,19.08
2023-02-08T10:14:52.884Z,19.08
2023-02-08T10:17:34.791Z,18.30
2023-02-08T10:20:13.492Z,18.40
2023-02-08T10:22:55.324Z,20.25
2023-02-08T10:25:43.430Z,19.33
2023-02-08T10:28:22.116Z,18.67
2023-02-08T10:31:08.698Z,18.20
2023-02-08T10:33:56.506Z,17.80
2023-02-08T10:36:35.896Z,17.63
2023-02-08T10:39:15.176Z,18.17
2023-02-08T10:41:43.215Z,18.20
2023-02-08T10:44:21.461Z,18.15
2023-02-08T10:46:56.553Z,17.52
2023-02-08T10:49:35.522Z,17.35
2023-02-08T10:52:02.638Z,18.15
2023-02-08T10:54:29.536Z,17.90
2023-02-08T10:57:01.004Z,18.13
2023-02-08T10:59:35.545Z,18.33
2023-02-08T11:02:02.146Z,17.05
2023-02-08T11:04:28.850Z,18.70
2023-02-08T11:06:55.622Z,17.58
2023-02-08T11:09:32.223Z,17.02
2023-02-08T11:12:01.872Z,17.02
2023-02-08T11:14:46.261Z,18.17
2023-02-08T11:17:34.058Z,17.98
2023-02-08T11:20:03.333Z,16.95
2023-02-08T11:22:31.431Z,17.50
2023-02-08T11:25:01.209Z,18.63
2023-02-08T11:27:48.097Z,17.52
2023-02-08T11:30:14.865Z,18.73
2023-02-08T11:32:43.395Z,17.33
2023-02-08T11:35:21.879Z,17.42
2023-02-08T11:37:50.226Z,17.25
2023-02-08T11:40:23.402Z,16.90
2023-02-08T11:42:51.750Z,18.35
2023-02-08T11:45:26.851Z,16.73
2023-02-08T11:47:56.533Z,17.63
2023-02-08T11:50:37.669Z,17.85
2023-02-08T11:53:17.587Z,16.90
2023-02-08T11:56:02.063Z,17.52
2023-02-08T11:58:28.664Z,17.20
2023-02-08T12:01:12.766Z,17.55
2023-02-08T12:03:41.615Z,17.52
2023-02-08T12:06:32.368Z,16.92
2023-02-08T12:09:10.312Z,18.05
2023-02-08T12:11:51.460Z,17.15
2023-02-08T12:14:42.723Z,17.60
2023-02-08T12:17:44.989Z,17.20
2023-02-08T12:20:15.860Z,16.20
2023-02-08T12:22:57.485Z,16.88
2023-02-08T12:25:24.034Z,16.88
2023-02-08T12:28:26.501Z,16.85
2023-02-08T12:31:05.290Z,16.58
2023-02-08T12:33:50.727Z,16.23
2023-02-08T12:36:17.236Z,16.85
2023-02-08T12:39:17.867Z,16.23
2023-02-08T12:42:10.294Z,16.17
2023-02-08T12:45:04.424Z,16.85
2023-02-08T12:47:41.649Z,17.60
2023-02-08T12:50:33.619Z,16.63
2023-02-08T12:53:22.332Z,15.38
2023-02-08T12:55:51.497Z,16.02
2023-02-08T12:58:31.877Z,15.43
2023-02-08T13:01:08.029Z,15.85
2023-02-08T13:04:11.734Z,16.90
2023-02-08T13:06:40.973Z,15.18
2023-02-08T13:09:35.535Z,14.85
2023-02-08T13:12:20.051Z,14.43
2023-02-08T13:15:03.188Z,15.00
2023-02-08T13:17:38.808Z,13.95
2023-02-08T13:20:20.033Z,14.45
2023-02-08T13:22:47.222Z,15.38
2023-02-08T13:25:26.305Z,15.88
2023-02-08T13:27:53.644Z,17.13
2023-02-08T13:30:22.111Z,18.83
2023-02-08T13:32:51.749Z,16.95
2023-02-08T13:35:27.602Z,15.50
2023-02-08T13:38:06.289Z,15.23
2023-02-08T13:40:36.640Z,15.68
2023-02-08T13:43:34.678Z,15.75
2023-02-08T13:46:03.690Z,15.85
2023-02-08T13:48:44.155Z,15.88
2023-02-08T13:51:58.700Z,13.68
2023-02-08T13:56:54.326Z,12.90
2023-02-08T13:59:28.872Z,13.18
2023-02-08T14:02:14.960Z,13.73
2023-02-08T14:05:22.718Z,13.85
2023-02-08T14:07:49.976Z,14.10
2023-02-08T14:10:26.433Z,14.77
2023-02-08T14:12:52.923Z,14.57
2023-02-08T14:15:40.277Z,14.50
2023-02-08T14:18:27.946Z,14.00
2023-02-08T14:21:06.304Z,14.30
2023-02-08T14:23:38.314Z,14.25
2023-02-08T14:26:18.191Z,13.27
2023-02-08T14:28:46.785Z,12.98
2023-02-08T14:31:16.897Z,14.38
2023-02-08T14:33:53.015Z,13.85
2023-02-08T14:36:28.151Z,13.82
2023-02-08T14:39:27.694Z,14.15
2023-02-08T14:42:05.312Z,13.15
2023-02-08T14:44:38.083Z,14.95
2023-02-08T14:47:26.845Z,14.55
2023-02-08T14:50:15.830Z,14.50
2023-02-08T14:52:52.961Z,13.70
2023-02-08T14:55:27.619Z,13.32
2023-02-08T14:57:56.357Z,13.55
2023-02-08T15:00:28.448Z,13.20
2023-02-08T15:02:56.738Z,12.60
2023-02-08T15:05:31.658Z,12.43
2023-02-08T15:07:59.972Z,12.20
2023-02-08T15:10:28.513Z,12.55
2023-02-08T15:12:58.189Z,11.90
2023-02-08T15:15:33.839Z,12.23
2023-02-08T15:18:02.120Z,11.07
2023-02-08T15:20:30.668Z,11.75
2023-02-08T15:23:00.212Z,11.82
2023-02-08T15:25:32.616Z,11.63
2023-02-08T15:28:07.049Z,11.23
2023-02-08T15:30:37.797Z,11.38
2023-02-08T15:33:10.582Z,11.23
2023-02-08T15:35:37.193Z,11.43
2023-02-08T15:38:05.510Z,10.52
2023-02-08T15:40:34.004Z,10.45
2023-02-08T15:43:13.520Z,10.30
2023-02-08T15:45:41.301Z,9.52
2023-02-08T15:48:08.278Z,10.40
2023-02-08T15:50:35.886Z,10.35
2023-02-08T15:53:06.297Z,10.63
2023-02-08T15:55:45.263Z,11.45
2023-02-08T15:58:20.375Z,48.70
2023-02-08T16:00:47.450Z,34.05
2023-02-08T16:03:26.241Z,20.15
2023-02-08T16:05:57.163Z,11.00
2023-02-08T16:08:29.969Z,10.45
2023-02-08T16:11:00.614Z,11.38
2023-02-08T16:13:35.959Z,10.63
2023-02-08T16:16:14.810Z,11.43
2023-02-08T16:18:46.114Z,10.25
2023-02-08T16:21:29.078Z,10.32
2023-02-08T16:24:05.840Z,10.50
2023-02-08T16:26:49.414Z,10.13
2023-02-08T16:29:28.395Z,9.57
2023-02-08T16:32:07.866Z,9.52
2023-02-08T16:34:38.452Z,9.05
2023-02-08T16:37:20.635Z,9.38
2023-02-08T16:39:59.832Z,9.18
2023-02-08T16:42:40.031Z,8.90
2023-02-08T16:45:17.018Z,8.25
2023-02-08T16:47:54.765Z,8.63
2023-02-08T16:50:28.449Z,8.75
2023-02-08T16:52:59.826Z,8.23
2023-02-08T16:55:29.805Z,8.40
2023-02-08T16:57:58.175Z,14.68
2023-02-08T17:00:36.248Z,9.63
2023-02-08T17:03:03.024Z,31.02
2023-02-08T17:05:37.241Z,12.52
2023-02-08T17:08:09.964Z,10.32
2023-02-08T17:10:39.399Z,9.70
2023-02-08T17:13:24.280Z,8.73
2023-02-08T17:15:51.190Z,8.40
2023-02-08T17:18:18.280Z,8.15
2023-02-08T17:20:45.243Z,6.72
2023-02-08T17:23:12.679Z,8.30
2023-02-08T17:25:39.492Z,7.90
2023-02-08T17:28:09.839Z,8.20
2023-02-08T17:30:38.934Z,8.70
2023-02-08T17:33:10.148Z,8.88
2023-02-08T17:35:38.125Z,7.63
2023-02-08T17:38:05.680Z,7.75
2023-02-08T17:40:35.488Z,7.68
2023-02-08T17:43:03.462Z,7.13
2023-02-08T17:45:36.450Z,7.25
2023-02-08T17:48:03.270Z,7.28
2023-02-08T17:50:29.794Z,7.63
2023-02-08T17:52:56.261Z,7.13
2023-02-08T17:55:22.883Z,7.20
2023-02-08T17:57:49.389Z,7.35
2023-02-08T18:00:19.890Z,18.45
2023-02-08T18:02:48.951Z,20.00
2023-02-08T18:05:18.169Z,8.32
2023-02-08T18:07:44.747Z,11.15
2023-02-08T18:10:12.308Z,8.32
2023-02-08T18:12:39.014Z,9.70
2023-02-08T18:15:07.023Z,14.25
2023-02-08T18:17:33.724Z,11.80
2023-02-08T18:20:00.360Z,7.60
2023-02-08T18:22:27.541Z,8.43
2023-02-08T18:24:55.361Z,8.45
2023-02-08T18:27:22.885Z,7.07
2023-02-08T18:29:49.418Z,7.65
2023-02-08T18:32:16.213Z,7.75
2023-02-08T18:34:43.099Z,7.50
2023-02-08T18:37:09.817Z,7.25
2023-02-08T18:39:36.474Z,7.32
2023-02-08T18:42:03.299Z,7.47
2023-02-08T18:44:29.918Z,8.02
2023-02-08T18:46:56.545Z,7.43
2023-02-08T18:49:23.065Z,8.07
2023-02-08T18:51:52.064Z,7.25
2023-02-08T18:54:18.639Z,7.35
2023-02-08T18:56:45.729Z,7.55
2023-02-08T18:59:12.823Z,7.30
2023-02-08T19:01:39.607Z,7.70
2023-02-08T19:04:06.214Z,6.95
2023-02-08T19:06:37.013Z,7.80
2023-02-08T19:09:06.751Z,7.63
2023-02-08T19:11:40.446Z,7.68
2023-02-08T19:14:10.722Z,6.95
2023-02-08T19:16:38.249Z,6.90
2023-02-08T19:19:06.531Z,7.63
2023-02-08T19:21:33.973Z,7.18
2023-02-08T19:24:02.092Z,6.68
2023-02-08T19:26:32.710Z,6.90
2023-02-08T19:29:03.429Z,6.40
2023-02-08T19:31:30.806Z,7.03
2023-02-08T19:34:02.120Z,6.60
2023-02-08T19:36:32.591Z,10.10
2023-02-08T19:38:59.843Z,20.77
2023-02-08T19:41:33.158Z,43.10
2023-02-08T19:44:00.906Z,48.33
2023-02-08T19:46:28.008Z,11.10
2023-02-08T19:49:00.177Z,11.10
2023-02-08T19:51:32.116Z,13.68
2023-02-08T19:54:00.809Z,9.18
2023-02-08T19:56:28.406Z,12.82
2023-02-08T19:58:54.900Z,14.23
2023-02-08T20:01:23.112Z,9.23
2023-02-08T20:03:52.912Z,9.73
2023-02-08T20:06:25.415Z,7.15
2023-02-08T20:08:54.689Z,8.30
2023-02-08T20:11:26.397Z,7.88
2023-02-08T20:13:55.327Z,6.63
2023-02-08T20:16:24.925Z,7.53
2023-02-08T20:18:54.759Z,7.70
2023-02-08T20:21:23.694Z,6.88
2023-02-08T20:23:50.950Z,7.30
2023-02-08T20:26:25.964Z,7.35
2023-02-08T20:28:56.868Z,7.00
2023-02-08T20:31:26.731Z,7.28
2023-02-08T20:33:53.784Z,8.02
2023-02-08T20:36:28.913Z,7.18
2023-02-08T20:38:57.664Z,7.53
2023-02-08T20:41:26.235Z,7.13
2023-02-08T20:43:53.236Z,7.55
2023-02-08T20:46:23.493Z,8.20
2023-02-08T20:48:51.417Z,7.72
2023-02-08T20:51:20.515Z,6.95
2023-02-08T20:53:47.703Z,7.43
2023-02-08T20:56:21.635Z,7.85
2023-02-08T20:58:48.775Z,7.72
2023-02-08T21:01:20.641Z,8.13
2023-02-08T21:03:47.246Z,7.45
2023-02-08T21:06:26.501Z,7.90
2023-02-08T21:08:55.327Z,7.60
2023-02-08T21:11:24.083Z,7.75
2023-02-08T21:13:51.185Z,8.15
2023-02-08T21:16:18.359Z,8.80
2023-02-08T21:18:45.888Z,8.65
2023-02-08T21:21:13.284Z,8.15
2023-02-08T21:23:39.781Z,9.32
2023-02-08T21:26:08.108Z,8.50
2023-02-08T21:28:35.467Z,8.85
2023-02-08T21:31:08.262Z,8.88
2023-02-08T21:33:34.923Z,9.15
2023-02-08T21:36:08.586Z,8.57
2023-02-08T21:38:35.086Z,8.25
2023-02-08T21:41:09.798Z,9.43
2023-02-08T21:43:39.570Z,8.63
2023-02-08T21:46:07.596Z,8.18
2023-02-08T21:48:54.855Z,8.57
2023-02-08T21:51:41.114Z,8.80
2023-02-08T21:54:31.194Z,8.63
2023-02-08T21:57:02.197Z,8.45
2023-02-08T21:59:29.500Z,8.98
2023-02-08T22:01:56.515Z,8.77
2023-02-08T22:04:23.109Z,8.00
2023-02-08T22:06:49.698Z,8.30
2023-02-08T22:09:17.647Z,9.32
2023-02-08T22:11:46.392Z,9.15
2023-02-08T22:14:13.606Z,9.52
2023-02-08T22:16:42.549Z,8.75
2023-02-08T22:19:11.526Z,8.98
2023-02-08T22:21:38.040Z,9.45
2023-02-08T22:24:04.648Z,8.70
2023-02-08T22:26:31.147Z,8.65
2023-02-08T22:28:57.652Z,8.50
2023-02-08T22:31:27.536Z,8.77
2023-02-08T22:33:54.193Z,9.32
2023-02-08T22:36:21.110Z,8.32
2023-02-08T22:38:47.575Z,7.90
2023-02-08T22:41:16.553Z,8.63
2023-02-08T22:43:44.855Z,8.68
2023-02-08T22:46:11.986Z,8.10
2023-02-08T22:48:38.574Z,8.48
2023-02-08T22:51:09.793Z,8.88
2023-02-08T22:53:36.402Z,8.57
2023-02-08T22:56:03.039Z,9.20
2023-02-08T22:58:29.693Z,8.40
2023-02-08T23:00:56.241Z,8.55
2023-02-08T23:03:25.702Z,8.40
2023-02-08T23:05:52.878Z,9.48
2023-02-08T23:08:21.397Z,8.27
2023-02-08T23:10:48.324Z,8.52
2023-02-08T23:13:14.973Z,9.27
2023-02-08T23:15:44.052Z,9.43
2023-02-08T23:18:10.647Z,8.90
2023-02-08T23:20:39.284Z,8.65
2023-02-08T23:23:05.873Z,9.60
2023-02-08T23:25:35.101Z,9.73
2023-02-08T23:28:01.558Z,9.40
2023-02-08T23:30:30.418Z,10.35
2023-02-08T23:32:56.956Z,9.73
2023-02-08T23:35:26.116Z,10.93
2023-02-08T23:37:52.573Z,9.55
2023-02-08T23:40:19.149Z,9.48
2023-02-08T23:42:48.221Z,9.30
2023-02-08T23:45:14.720Z,9.88
2023-02-08T23:47:41.303Z,8.85
2023-02-08T23:50:08.533Z,8.68
2023-02-08T23:52:35.790Z,8.75
2023-02-08T23:55:04.123Z,8.43
2023-02-08T23:57:35.699Z,8.73
